Time;durP1;ratioP1;P1;durP2;ratioP2;P2;SDS_P1;SDS_P2;PMS_P1;PMS_P2;Temp;Humidity;BMP_temperature;BMP_pressure;BME280_temperature;BME280_humidity;BME280_pressure;Samples;Min_cycle;Max_cycle;Signal;HPM_P1;HPM_P2
2022/09/25 00:01:03;;;;;;;1.33;1.33;;;;;11.10;95595.00;;;;5114439;28;20198;-66
2022/09/25 00:03:31;;;;;;;1.10;1.00;;;;;11.10;95582.00;;;;5114344;28;20280;-66
2022/09/25 00:06:04;;;;;;;1.00;1.00;;;;;11.00;95583.00;;;;5114356;28;20277;-65
2022/09/25 00:08:32;;;;;;;0.70;0.70;;;;;11.00;95582.00;;;;5096516;28;20705;-67
2022/09/25 00:10:59;;;;;;;1.00;1.00;;;;;11.00;95587.00;;;;5114186;28;20221;-66
2022/09/25 00:13:26;;;;;;;0.90;0.90;;;;;11.00;95584.00;;;;5114411;28;20190;-66
2022/09/25 00:15:55;;;;;;;0.80;0.80;;;;;11.00;95573.00;;;;5096373;28;20703;-65
2022/09/25 00:21:06;;;;;;;1.43;1.33;;;;;11.00;95574.00;;;;5113051;28;20205;-66
2022/09/25 00:23:33;;;;;;;1.10;1.10;;;;;11.00;95572.00;;;;5114217;28;20195;-65
2022/09/25 00:26:00;;;;;;;1.20;1.20;;;;;11.00;95569.00;;;;5114065;28;20199;-66
2022/09/25 00:28:28;;;;;;;1.60;1.50;;;;;11.00;95561.00;;;;5114067;28;20209;-67
2022/09/25 00:30:55;;;;;;;3.03;1.90;;;;;11.00;95565.00;;;;5113888;28;20225;-64
2022/09/25 00:33:23;;;;;;;1.50;1.37;;;;;11.10;95560.00;;;;5114048;28;20210;-65
2022/09/25 00:35:50;;;;;;;1.50;1.40;;;;;11.00;95562.00;;;;5116903;28;20215;-65
2022/09/25 00:38:16;;;;;;;0.90;0.90;;;;;11.00;95564.00;;;;5120843;28;20222;-66
2022/09/25 00:40:43;;;;;;;1.10;1.10;;;;;11.00;95565.00;;;;5104706;28;20620;-64
2022/09/25 00:43:13;;;;;;;1.03;0.97;;;;;11.00;95557.00;;;;5123620;28;20190;-67
2022/09/25 00:45:40;;;;;;;1.23;1.23;;;;;11.00;95571.00;;;;5120642;28;20665;-69
2022/09/25 00:48:11;;;;;;;1.57;1.47;;;;;11.00;95562.00;;;;5118236;28;20190;-66
2022/09/25 00:50:47;;;;;;;1.80;1.70;;;;;11.00;95559.00;;;;5104019;28;20252;-66
2022/09/25 00:53:18;;;;;;;1.43;1.33;;;;;11.00;95550.00;;;;5121236;28;20198;-64
2022/09/25 00:55:45;;;;;;;1.20;1.20;;;;;11.00;95548.00;;;;5124024;28;20239;-65
2022/09/25 00:58:16;;;;;;;1.13;1.13;;;;;11.00;95542.00;;;;5124689;28;20232;-65
2022/09/25 01:00:45;;;;;;;2.03;1.83;;;;;11.00;95547.00;;;;5123516;28;20225;-65
2022/09/25 01:03:12;;;;;;;1.40;1.33;;;;;10.90;95536.00;;;;5114242;28;20243;-66
2022/09/25 01:05:43;;;;;;;0.70;0.70;;;;;10.90;95542.00;;;;5113542;28;20555;-65
2022/09/25 01:08:13;;;;;;;2.93;1.87;;;;;10.90;95540.00;;;;5113391;28;20254;-66
2022/09/25 01:10:40;;;;;;;0.63;0.63;;;;;11.00;95539.00;;;;5116475;28;20243;-65
2022/09/25 01:13:08;;;;;;;1.03;1.03;;;;;10.90;95543.00;;;;5114691;28;20533;-68
2022/09/25 01:15:43;;;;;;;0.83;0.83;;;;;10.90;95539.00;;;;5095750;28;20583;-68
2022/09/25 01:18:20;;;;;;;1.50;1.40;;;;;10.90;95548.00;;;;5113432;28;20609;-66
2022/09/25 01:21:11;;;;;;;1.13;1.13;;;;;10.90;95557.00;;;;5095553;28;20232;-67
2022/09/25 01:23:56;;;;;;;1.70;1.07;;;;;10.80;95548.00;;;;5113285;28;20224;-68
2022/09/25 01:26:55;;;;;;;0.90;0.90;;;;;10.90;95548.00;;;;5113098;28;20196;-65
2022/09/25 01:29:27;;;;;;;0.97;0.97;;;;;10.90;95543.00;;;;5112965;28;20228;-65
2022/09/25 01:32:02;;;;;;;0.90;0.90;;;;;10.90;95545.00;;;;5113040;28;20182;-65
2022/09/25 01:34:37;;;;;;;1.00;1.00;;;;;10.90;95551.00;;;;5112992;28;20252;-66
2022/09/25 01:37:12;;;;;;;0.80;0.80;;;;;10.80;95554.00;;;;5095236;28;20502;-65
2022/09/25 01:39:44;;;;;;;0.77;0.77;;;;;10.90;95551.00;;;;5112848;28;20225;-65
2022/09/25 01:42:16;;;;;;;1.00;1.00;;;;;10.90;95551.00;;;;5112793;28;20247;-65
2022/09/25 01:44:45;;;;;;;0.70;0.70;;;;;10.90;95540.00;;;;5112969;28;20217;-66
2022/09/25 01:47:21;;;;;;;0.70;0.70;;;;;11.00;95542.00;;;;5113036;28;20225;-65
2022/09/25 01:49:51;;;;;;;1.23;1.23;;;;;11.00;95544.00;;;;5112949;28;20233;-65
2022/09/25 01:52:24;;;;;;;0.63;0.63;;;;;10.90;95536.00;;;;5116457;28;20231;-65
2022/09/25 01:54:56;;;;;;;0.97;0.97;;;;;11.00;95540.00;;;;5116469;28;20221;-67
2022/09/25 01:57:28;;;;;;;0.90;0.90;;;;;11.00;95542.00;;;;5098359;28;20200;-66
2022/09/25 02:00:01;;;;;;;1.17;1.17;;;;;10.90;95536.00;;;;5116487;28;20230;-68
2022/09/25 02:02:33;;;;;;;1.90;0.83;;;;;11.00;95530.00;;;;5116315;28;20542;-68
2022/09/25 02:05:06;;;;;;;1.07;1.07;;;;;11.00;95519.00;;;;5116497;28;20255;-66
2022/09/25 02:07:38;;;;;;;1.73;1.63;;;;;11.10;95524.00;;;;5116097;28;20226;-66
2022/09/25 02:10:09;;;;;;;1.47;1.47;;;;;11.00;95528.00;;;;5116060;28;20221;-66
2022/09/25 02:12:41;;;;;;;0.87;0.87;;;;;11.00;95536.00;;;;5116045;28;20286;-63
2022/09/25 02:15:12;;;;;;;1.60;1.50;;;;;11.00;95534.00;;;;5098139;28;20208;-66
2022/09/25 02:20:35;;;;;;;1.87;1.77;;;;;10.90;95536.00;;;;5089852;28;20244;-66
2022/09/25 02:23:13;;;;;;;1.53;1.43;;;;;10.90;95538.00;;;;5116407;28;20210;-66
2022/09/25 02:25:44;;;;;;;0.73;0.73;;;;;10.80;95539.00;;;;5115926;28;20194;-65
2022/09/25 02:28:11;;;;;;;0.70;0.70;;;;;10.80;95534.00;;;;5116189;28;20289;-66
2022/09/25 02:30:39;;;;;;;1.00;1.00;;;;;10.80;95529.00;;;;5115934;28;20240;-66
2022/09/25 02:33:05;;;;;;;0.80;0.80;;;;;10.80;95541.00;;;;5116023;28;20190;-66
2022/09/25 02:35:32;;;;;;;0.80;0.80;;;;;10.80;95533.00;;;;5115790;28;20675;-65
2022/09/25 02:37:59;;;;;;;1.47;1.37;;;;;10.80;95534.00;;;;5115775;28;20239;-65
2022/09/25 02:40:32;;;;;;;0.63;0.63;;;;;10.80;95532.00;;;;5097643;28;20577;-66
2022/09/25 02:43:07;;;;;;;1.53;1.43;;;;;10.70;95535.00;;;;5115821;28;20238;-66
2022/09/25 02:45:41;;;;;;;0.67;0.67;;;;;10.70;95528.00;;;;5116099;28;20201;-67
2022/09/25 02:48:14;;;;;;;1.00;1.00;;;;;10.80;95539.00;;;;5115810;28;20621;-67
2022/09/25 02:50:53;;;;;;;0.90;0.90;;;;;10.80;95532.00;;;;5115583;28;20218;-64
2022/09/25 02:53:27;;;;;;;1.17;1.17;;;;;10.80;95531.00;;;;5115721;28;20216;-65
2022/09/25 02:55:59;;;;;;;1.13;1.13;;;;;10.70;95533.00;;;;5115556;28;20269;-65
2022/09/25 02:58:29;;;;;;;1.23;1.13;;;;;10.70;95528.00;;;;5097551;28;20232;-65
2022/09/25 03:00:59;;;;;;;1.13;1.07;;;;;10.80;95525.00;;;;5115363;28;20283;-65
2022/09/25 03:03:27;;;;;;;1.50;1.47;;;;;10.80;95533.00;;;;5096738;28;20228;-62
2022/09/25 03:05:56;;;;;;;1.13;1.13;;;;;10.80;95533.00;;;;5115416;28;20202;-65
2022/09/25 03:08:37;;;;;;;0.70;0.70;;;;;10.80;95529.00;;;;5115657;28;20202;-64
2022/09/25 03:11:05;;;;;;;0.70;0.70;;;;;10.80;95524.00;;;;5115651;28;20297;-65
2022/09/25 03:13:35;;;;;;;0.77;0.77;;;;;10.80;95527.00;;;;5116287;28;20218;-65
2022/09/25 03:16:07;;;;;;;1.17;1.17;;;;;10.80;95525.00;;;;5116958;28;20190;-66
2022/09/25 03:18:34;;;;;;;1.70;1.30;;;;;10.90;95522.00;;;;5115276;28;20205;-65
2022/09/25 03:21:04;;;;;;;0.80;0.80;;;;;10.80;95527.00;;;;5115066;28;20218;-64
2022/09/25 03:23:31;;;;;;;0.57;0.57;;;;;10.80;95513.00;;;;5115253;28;20198;-65
2022/09/25 03:25:58;;;;;;;1.80;1.33;;;;;10.80;95513.00;;;;5115086;28;20611;-67
2022/09/25 03:28:25;;;;;;;1.27;1.27;;;;;10.80;95522.00;;;;5114992;28;20529;-65
2022/09/25 03:31:04;;;;;;;0.90;0.90;;;;;10.80;95517.00;;;;5114809;28;20597;-65
2022/09/25 03:33:35;;;;;;;1.17;1.17;;;;;10.70;95520.00;;;;5096991;28;20189;-63
2022/09/25 03:36:05;;;;;;;0.60;0.60;;;;;10.70;95521.00;;;;5114985;28;20190;-65
2022/09/25 03:38:32;;;;;;;1.27;1.17;;;;;10.70;95513.00;;;;5114835;28;20209;-65
2022/09/25 03:40:59;;;;;;;1.10;1.00;;;;;10.70;95521.00;;;;5114769;28;20206;-65
2022/09/25 03:43:26;;;;;;;0.83;0.83;;;;;10.60;95519.00;;;;5114536;28;20232;-66
2022/09/25 03:45:52;;;;;;;0.60;0.60;;;;;10.60;95514.00;;;;5114630;28;20197;-65
2022/09/25 03:48:20;;;;;;;0.60;0.60;;;;;10.50;95523.00;;;;5114545;28;20513;-63
2022/09/25 03:50:48;;;;;;;1.07;1.07;;;;;10.50;95520.00;;;;5114489;28;20210;-65
2022/09/25 03:53:16;;;;;;;0.70;0.70;;;;;10.50;95524.00;;;;5096443;28;20229;-65
2022/09/25 03:55:47;;;;;;;1.50;1.03;;;;;10.50;95519.00;;;;5114497;28;20629;-64
2022/09/25 03:58:16;;;;;;;0.60;0.60;;;;;10.60;95513.00;;;;5114441;28;20210;-65
2022/09/25 04:00:45;;;;;;;0.80;0.80;;;;;10.60;95517.00;;;;5096451;28;20202;-66
2022/09/25 04:03:11;;;;;;;1.07;1.07;;;;;10.60;95519.00;;;;5114393;28;20186;-65
2022/09/25 04:05:39;;;;;;;0.50;0.50;;;;;10.60;95511.00;;;;5096479;28;20278;-65
2022/09/25 04:08:06;;;;;;;0.70;0.70;;;;;10.70;95506.00;;;;5096327;28;20198;-65
2022/09/25 04:10:37;;;;;;;0.63;0.63;;;;;10.60;95513.00;;;;5114492;28;20225;-66
2022/09/25 04:13:05;;;;;;;0.50;0.50;;;;;10.60;95511.00;;;;5114183;28;20210;-65
2022/09/25 04:15:33;;;;;;;0.80;0.80;;;;;10.60;95515.00;;;;5113256;28;20206;-65
2022/09/25 04:18:02;;;;;;;0.70;0.70;;;;;10.70;95510.00;;;;5096430;28;20212;-68
2022/09/25 04:20:29;;;;;;;0.50;0.50;;;;;10.60;95517.00;;;;5114349;28;20194;-67
2022/09/25 04:22:56;;;;;;;1.20;1.20;;;;;10.60;95519.00;;;;5114391;28;20197;-67
2022/09/25 04:25:24;;;;;;;1.17;0.97;;;;;10.60;95513.00;;;;5114358;28;20255;-67
2022/09/25 04:27:54;;;;;;;0.70;0.70;;;;;10.60;95517.00;;;;5114185;28;20229;-69
2022/09/25 04:30:21;;;;;;;0.67;0.67;;;;;10.50;95512.00;;;;5114160;28;20730;-68
2022/09/25 04:35:33;;;;;;;1.17;0.97;;;;;10.40;95524.00;;;;5114376;28;20257;-68
2022/09/25 04:38:03;;;;;;;1.03;1.03;;;;;10.40;95521.00;;;;5114090;28;20213;-69
2022/09/25 04:40:31;;;;;;;6.03;2.30;;;;;10.40;95517.00;;;;5114032;28;20206;-68
2022/09/25 04:42:59;;;;;;;0.53;0.53;;;;;10.40;95518.00;;;;5114022;28;20205;-68
2022/09/25 04:45:29;;;;;;;0.67;0.67;;;;;10.40;95527.00;;;;5113856;28;20219;-68
2022/09/25 04:47:59;;;;;;;0.90;0.90;;;;;10.50;95509.00;;;;5096210;28;20285;-65
2022/09/25 04:50:27;;;;;;;0.53;0.53;;;;;10.50;95514.00;;;;5113793;28;20603;-68
2022/09/25 04:52:55;;;;;;;0.97;0.97;;;;;10.50;95512.00;;;;5113976;28;20213;-66
2022/09/25 04:55:24;;;;;;;0.83;0.83;;;;;10.50;95509.00;;;;5113757;28;20222;-66
2022/09/25 04:57:51;;;;;;;0.83;0.83;;;;;10.50;95519.00;;;;5113934;28;20194;-69
2022/09/25 05:00:19;;;;;;;0.60;0.60;;;;;10.60;95515.00;;;;5113935;28;20241;-68
2022/09/25 05:02:48;;;;;;;1.13;1.13;;;;;10.50;95516.00;;;;5113817;28;20190;-67
2022/09/25 05:05:15;;;;;;;0.80;0.80;;;;;10.50;95521.00;;;;5113885;28;20186;-68
2022/09/25 05:07:51;;;;;;;0.80;0.80;;;;;10.50;95533.00;;;;5113869;28;20190;-68
2022/09/25 05:10:19;;;;;;;0.83;0.83;;;;;10.40;95535.00;;;;5113612;28;20274;-68
2022/09/25 05:12:46;;;;;;;1.00;1.00;;;;;10.30;95523.00;;;;5113723;28;20683;-69
2022/09/25 05:15:14;;;;;;;1.23;1.23;;;;;10.30;95529.00;;;;5113697;28;20191;-69
2022/09/25 05:17:43;;;;;;;0.83;0.83;;;;;10.30;95523.00;;;;5095620;28;20292;-68
2022/09/25 05:20:10;;;;;;;1.33;1.33;;;;;10.30;95533.00;;;;5095679;28;20214;-68
2022/09/25 05:22:37;;;;;;;1.03;1.03;;;;;10.40;95532.00;;;;5113355;28;20221;-65
2022/09/25 05:25:04;;;;;;;0.90;0.90;;;;;10.40;95532.00;;;;5113630;28;20178;-65
2022/09/25 05:27:33;;;;;;;1.07;1.07;;;;;10.40;95526.00;;;;5116940;28;20189;-66
2022/09/25 05:30:01;;;;;;;1.03;1.03;;;;;10.40;95528.00;;;;5117015;28;20218;-66
2022/09/25 05:32:29;;;;;;;1.10;1.10;;;;;10.40;95524.00;;;;5116867;28;20197;-66
2022/09/25 05:34:58;;;;;;;0.80;0.80;;;;;10.40;95533.00;;;;5116821;28;20221;-66
2022/09/25 05:37:25;;;;;;;1.00;1.00;;;;;10.30;95531.00;;;;5116712;28;20229;-66
2022/09/25 05:39:52;;;;;;;1.63;1.57;;;;;10.30;95532.00;;;;5098785;28;20229;-66
2022/09/25 05:42:19;;;;;;;2.17;1.37;;;;;10.40;95527.00;;;;5116606;28;20190;-66
2022/09/25 05:44:46;;;;;;;0.70;0.70;;;;;10.50;95525.00;;;;5116525;28;20217;-65
2022/09/25 05:47:13;;;;;;;0.80;0.80;;;;;10.50;95525.00;;;;5116692;28;20213;-63
2022/09/25 05:49:40;;;;;;;0.80;0.80;;;;;10.50;95524.00;;;;5116512;28;20189;-66
2022/09/25 05:52:07;;;;;;;0.80;0.80;;;;;10.50;95526.00;;;;5116603;28;20194;-64
2022/09/25 05:54:33;;;;;;;1.30;1.30;;;;;10.40;95526.00;;;;5098787;28;20202;-66
2022/09/25 05:57:03;;;;;;;0.50;0.50;;;;;10.50;95530.00;;;;5116359;28;20224;-66
2022/09/25 05:59:29;;;;;;;0.80;0.80;;;;;10.50;95530.00;;;;5116548;28;20198;-65
2022/09/25 06:01:56;;;;;;;0.70;0.70;;;;;10.60;95529.00;;;;5116253;28;20275;-66
2022/09/25 06:04:24;;;;;;;1.00;1.00;;;;;10.60;95539.00;;;;5116385;28;20205;-65
2022/09/25 06:06:51;;;;;;;0.70;0.70;;;;;10.50;95533.00;;;;5116322;28;20248;-65
2022/09/25 06:09:20;;;;;;;0.70;0.70;;;;;10.50;95533.00;;;;5116145;28;20205;-65
2022/09/25 06:11:47;;;;;;;0.80;0.80;;;;;10.50;95536.00;;;;5098115;28;20264;-63
2022/09/25 06:14:14;;;;;;;1.27;1.23;;;;;10.60;95536.00;;;;5116127;28;20609;-66
2022/09/25 06:16:40;;;;;;;0.90;0.90;;;;;10.60;95537.00;;;;5116086;28;20198;-68
2022/09/25 06:19:07;;;;;;;0.90;0.90;;;;;10.60;95538.00;;;;5115815;28;20603;-65
2022/09/25 06:21:37;;;;;;;1.07;1.07;;;;;10.60;95534.00;;;;5115929;28;20492;-65
2022/09/25 06:24:04;;;;;;;0.87;0.87;;;;;10.70;95538.00;;;;5097823;28;20229;-65
2022/09/25 06:26:34;;;;;;;0.83;0.83;;;;;10.70;95543.00;;;;5115926;28;20202;-65
2022/09/25 06:29:01;;;;;;;1.33;1.33;;;;;10.70;95545.00;;;;5115872;28;20229;-65
2022/09/25 06:31:28;;;;;;;0.83;0.83;;;;;10.70;95547.00;;;;5115793;28;20261;-65
2022/09/25 06:33:54;;;;;;;0.87;0.87;;;;;10.80;95540.00;;;;5097791;28;20213;-64
2022/09/25 06:36:24;;;;;;;0.53;0.53;;;;;10.80;95538.00;;;;5115297;28;20279;-66
2022/09/25 06:38:54;;;;;;;2.00;1.73;;;;;10.80;95546.00;;;;5115099;28;20190;-65
2022/09/25 06:41:21;;;;;;;0.90;0.90;;;;;10.80;95541.00;;;;5115613;28;20236;-66
2022/09/25 06:43:49;;;;;;;0.57;0.57;;;;;10.80;95549.00;;;;5115572;28;20217;-66
2022/09/25 06:46:17;;;;;;;1.23;1.23;;;;;10.90;95547.00;;;;5115401;28;20217;-66
2022/09/25 06:48:52;;;;;;;1.27;1.27;;;;;11.00;95555.00;;;;5115585;28;20265;-65
2022/09/25 06:51:20;;;;;;;1.47;1.37;;;;;10.90;95548.00;;;;5097385;28;20590;-66
2022/09/25 06:53:52;;;;;;;1.97;0.97;;;;;11.00;95544.00;;;;5097383;28;20194;-66
2022/09/25 06:56:20;;;;;;;0.87;0.87;;;;;11.10;95548.00;;;;5115402;28;20250;-66
2022/09/25 06:58:47;;;;;;;1.13;1.13;;;;;11.10;95545.00;;;;5115311;28;20213;-65
2022/09/25 07:01:14;;;;;;;1.23;1.13;;;;;11.10;95552.00;;;;5115345;28;20202;-64
2022/09/25 07:03:44;;;;;;;0.80;0.80;;;;;11.20;95550.00;;;;5115147;28;20275;-66
2022/09/25 07:06:13;;;;;;;1.97;1.87;;;;;11.20;95549.00;;;;5115056;28;20194;-66
2022/09/25 07:08:41;;;;;;;0.90;0.90;;;;;11.20;95547.00;;;;5115130;28;20216;-66
2022/09/25 07:11:10;;;;;;;0.93;0.93;;;;;11.20;95552.00;;;;5115002;28;20214;-64
2022/09/25 07:13:38;;;;;;;0.77;0.77;;;;;11.20;95545.00;;;;5114974;28;20668;-66
2022/09/25 07:16:07;;;;;;;0.67;0.67;;;;;11.30;95545.00;;;;5115058;28;20198;-66
2022/09/25 07:18:34;;;;;;;1.33;1.33;;;;;11.40;95553.00;;;;5114885;28;20209;-65
2022/09/25 07:21:02;;;;;;;0.50;0.50;;;;;11.40;95553.00;;;;5114857;28;20255;-65
2022/09/25 07:23:30;;;;;;;1.00;1.00;;;;;11.30;95553.00;;;;5114869;28;20205;-66
2022/09/25 07:26:02;;;;;;;0.90;0.90;;;;;11.30;95554.00;;;;5114714;28;20221;-68
2022/09/25 07:28:29;;;;;;;1.63;1.53;;;;;11.40;95543.00;;;;5096746;28;20206;-66
2022/09/25 07:30:57;;;;;;;0.77;0.77;;;;;11.50;95543.00;;;;5114453;28;20274;-65
2022/09/25 07:33:23;;;;;;;0.90;0.90;;;;;11.60;95540.00;;;;5115010;28;20190;-66
2022/09/25 07:35:51;;;;;;;1.30;1.30;;;;;11.60;95541.00;;;;5114648;28;20198;-65
2022/09/25 07:38:18;;;;;;;1.00;1.00;;;;;11.60;95546.00;;;;5096834;28;20218;-66
2022/09/25 07:40:44;;;;;;;0.80;0.80;;;;;11.60;95542.00;;;;5114707;28;20190;-66
2022/09/25 07:43:11;;;;;;;1.10;1.10;;;;;11.70;95528.00;;;;5114452;28;20218;-66
2022/09/25 07:45:40;;;;;;;0.70;0.70;;;;;11.80;95535.00;;;;5114659;28;20194;-67
2022/09/25 07:48:09;;;;;;;1.03;1.03;;;;;11.90;95534.00;;;;5096371;28;20684;-66
2022/09/25 07:50:36;;;;;;;1.73;1.63;;;;;12.10;95544.00;;;;5114367;28;20217;-67
2022/09/25 07:53:02;;;;;;;1.27;1.17;;;;;12.20;95541.00;;;;5096519;28;20198;-67
2022/09/25 07:55:31;;;;;;;1.17;1.17;;;;;12.20;95537.00;;;;5114351;28;20210;-66
2022/09/25 07:57:58;;;;;;;1.00;1.00;;;;;12.30;95537.00;;;;5114283;28;20297;-61
2022/09/25 08:00:25;;;;;;;1.03;1.03;;;;;12.40;95543.00;;;;5114315;28;20354;-67
2022/09/25 08:02:57;;;;;;;1.07;1.07;;;;;12.40;95546.00;;;;5114241;28;20194;-67
2022/09/25 08:05:26;;;;;;;0.90;0.90;;;;;12.40;95540.00;;;;5114214;28;20214;-68
2022/09/25 08:07:53;;;;;;;0.87;0.87;;;;;12.60;95546.00;;;;5114208;28;20584;-63
2022/09/25 08:10:20;;;;;;;1.00;1.00;;;;;12.60;95539.00;;;;5114019;28;20272;-64
2022/09/25 08:12:47;;;;;;;1.03;1.03;;;;;12.80;95548.00;;;;5114092;28;20560;-66
2022/09/25 08:15:14;;;;;;;6.50;1.33;;;;;13.00;95552.00;;;;5114109;28;20206;-67
2022/09/25 08:17:41;;;;;;;1.07;1.07;;;;;13.00;95549.00;;;;5114065;28;20194;-65
2022/09/25 08:20:09;;;;;;;0.73;0.73;;;;;13.00;95545.00;;;;5114006;28;20224;-67
2022/09/25 08:22:36;;;;;;;0.70;0.70;;;;;13.10;95549.00;;;;5113822;28;20308;-66
2022/09/25 08:25:04;;;;;;;0.90;0.90;;;;;13.30;95547.00;;;;5113914;28;20626;-67
2022/09/25 08:27:31;;;;;;;0.60;0.60;;;;;13.40;95547.00;;;;5113868;28;20732;-66
2022/09/25 08:29:58;;;;;;;2.10;1.37;;;;;13.30;95541.00;;;;5095881;28;20552;-67
2022/09/25 08:32:25;;;;;;;1.67;1.57;;;;;13.20;95538.00;;;;5095858;28;20526;-64
2022/09/25 08:34:53;;;;;;;1.47;1.47;;;;;13.20;95537.00;;;;5113816;28;20641;-64
2022/09/25 08:37:19;;;;;;;0.80;0.80;;;;;13.30;95539.00;;;;5113840;28;20205;-64
2022/09/25 08:39:47;;;;;;;0.63;0.63;;;;;13.30;95540.00;;;;5114034;28;20244;-64
2022/09/25 08:42:19;;;;;;;1.10;1.10;;;;;13.30;95547.00;;;;5096114;28;20284;-65
2022/09/25 08:49:00;;;;;;;0.70;0.70;;;;;13.30;95548.00;;;;5114333;28;20198;-63
2022/09/25 08:50:25;;;;;;;1.87;1.37;;;;;13.20;95534.00;;;;5113546;28;20264;-64
2022/09/25 08:53:01;;;;;;;1.13;1.13;;;;;13.30;95531.00;;;;5113900;28;20214;-63
2022/09/25 08:58:16;;;;;;;0.63;0.63;;;;;13.50;95534.00;;;;5094852;28;20283;-64
2022/09/25 09:00:44;;;;;;;0.97;0.97;;;;;13.60;95534.00;;;;5113210;28;20190;-64
2022/09/25 09:03:13;;;;;;;0.90;0.90;;;;;13.60;95524.00;;;;5113498;28;20190;-63
2022/09/25 09:05:45;;;;;;;1.67;1.03;;;;;13.70;95530.00;;;;5113704;28;20309;-63
2022/09/25 09:08:16;;;;;;;0.83;0.83;;;;;13.90;95532.00;;;;5095587;28;20206;-66
2022/09/25 09:10:49;;;;;;;0.90;0.90;;;;;14.00;95536.00;;;;5113563;28;20325;-64
2022/09/25 09:13:24;;;;;;;0.80;0.80;;;;;14.00;95530.00;;;;5113440;28;20648;-65
2022/09/25 09:15:57;;;;;;;0.70;0.70;;;;;13.80;95536.00;;;;5113538;28;20193;-67
2022/09/25 09:18:26;;;;;;;1.73;1.63;;;;;13.70;95538.00;;;;5113512;28;20225;-65
2022/09/25 09:20:57;;;;;;;1.00;1.00;;;;;13.70;95538.00;;;;5113453;28;20249;-67
2022/09/25 09:23:30;;;;;;;0.67;0.67;;;;;13.70;95539.00;;;;5113320;28;20202;-66
2022/09/25 09:26:02;;;;;;;0.80;0.80;;;;;13.70;95536.00;;;;5113738;28;20330;-66
2022/09/25 09:29:02;;;;;;;0.70;0.70;;;;;13.60;95533.00;;;;5113356;28;20621;-64
2022/09/25 09:31:36;;;;;;;1.20;1.10;;;;;13.40;95527.00;;;;5113135;28;20322;-64
2022/09/25 09:34:24;;;;;;;1.00;1.00;;;;;13.40;95526.00;;;;5113143;28;20185;-63
2022/09/25 09:37:00;;;;;;;1.03;1.03;;;;;13.20;95524.00;;;;5113093;28;20524;-64
2022/09/25 09:39:34;;;;;;;1.10;1.10;;;;;13.10;95527.00;;;;5113037;28;20655;-64
2022/09/25 09:42:12;;;;;;;0.80;0.80;;;;;13.40;95532.00;;;;5113076;28;20209;-63
2022/09/25 09:44:50;;;;;;;0.80;0.80;;;;;13.20;95529.00;;;;5113019;28;20198;-61
2022/09/25 09:47:38;;;;;;;1.03;1.03;;;;;13.10;95529.00;;;;5112935;28;20696;-66
2022/09/25 09:50:20;;;;;;;0.60;0.60;;;;;13.30;95533.00;;;;5112707;28;20212;-64
2022/09/25 09:52:50;;;;;;;0.80;0.80;;;;;13.50;95534.00;;;;5112695;28;20204;-64
2022/09/25 09:55:24;;;;;;;0.70;0.70;;;;;13.70;95528.00;;;;5112675;28;20194;-64
2022/09/25 09:57:53;;;;;;;0.97;0.97;;;;;13.70;95541.00;;;;5112857;28;20205;-64
2022/09/25 10:00:22;;;;;;;1.00;1.00;;;;;13.90;95533.00;;;;5113042;28;20641;-64
2022/09/25 10:02:53;;;;;;;1.33;1.33;;;;;14.20;95539.00;;;;5094697;28;20577;-64
2022/09/25 10:05:24;;;;;;;6.67;2.27;;;;;14.50;95530.00;;;;5112806;28;20201;-63
2022/09/25 10:07:52;;;;;;;0.90;0.90;;;;;14.40;95529.00;;;;5112767;28;20272;-64
2022/09/25 10:10:22;;;;;;;1.07;1.07;;;;;14.20;95525.00;;;;5112536;28;20229;-64
2022/09/25 10:12:51;;;;;;;1.77;1.67;;;;;14.00;95531.00;;;;5113857;28;20213;-65
2022/09/25 10:15:27;;;;;;;1.13;1.03;;;;;13.60;95531.00;;;;5116059;28;20403;-64
2022/09/25 10:17:56;;;;;;;1.27;1.27;;;;;13.30;95525.00;;;;5116040;28;20323;-64
2022/09/25 10:20:26;;;;;;;0.70;0.70;;;;;13.60;95527.00;;;;5116238;28;20198;-64
2022/09/25 10:22:56;;;;;;;3.03;2.83;;;;;13.60;95524.00;;;;5116029;28;20236;-64
2022/09/25 10:25:36;;;;;;;2.27;2.10;;;;;13.80;95519.00;;;;5115999;28;20202;-65
2022/09/25 10:28:24;;;;;;;2.63;2.43;;;;;14.00;95522.00;;;;5116030;28;20274;-64
2022/09/25 10:30:52;;;;;;;0.97;0.97;;;;;14.30;95527.00;;;;5116066;28;20545;-65
2022/09/25 10:33:21;;;;;;;0.83;0.83;;;;;14.40;95530.00;;;;5115696;28;20225;-64
2022/09/25 10:35:50;;;;;;;1.63;1.43;;;;;14.20;95531.00;;;;5115776;28;20198;-64
2022/09/25 10:38:43;;;;;;;1.00;1.00;;;;;14.20;95540.00;;;;5097702;28;20229;-65
2022/09/25 10:41:12;;;;;;;1.50;1.43;;;;;14.00;95537.00;;;;5115745;28;20194;-63
2022/09/25 10:43:52;;;;;;;2.17;1.60;;;;;13.90;95539.00;;;;5097694;28;20225;-62
2022/09/25 10:52:05;;;;;;;1.30;1.20;;;;;13.50;95533.00;;;;5115573;28;20293;-62
2022/09/25 10:54:35;;;;;;;1.10;1.10;;;;;13.30;95540.00;;;;5115465;28;20521;-65
2022/09/25 10:57:17;;;;;;;1.07;1.07;;;;;13.20;95538.00;;;;5115391;28;20190;-63
2022/09/25 10:59:49;;;;;;;1.10;1.10;;;;;13.30;95544.00;;;;5115508;28;20217;-63
2022/09/25 11:02:30;;;;;;;1.20;1.20;;;;;13.30;95548.00;;;;5115366;28;20210;-66
2022/09/25 11:04:57;;;;;;;1.90;1.80;;;;;13.40;95541.00;;;;5115356;28;20699;-66
2022/09/25 11:07:26;;;;;;;1.53;1.47;;;;;13.60;95543.00;;;;5115826;28;20259;-64
2022/09/25 11:09:53;;;;;;;4.73;2.93;;;;;13.50;95546.00;;;;5115474;28;20234;-63
2022/09/25 11:12:24;;;;;;;3.07;2.10;;;;;13.60;95546.00;;;;5115529;28;20256;-66
2022/09/25 11:14:57;;;;;;;1.00;1.00;;;;;13.60;95544.00;;;;5097567;28;20263;-64
2022/09/25 11:17:36;;;;;;;1.63;1.53;;;;;13.80;95539.00;;;;5115247;28;20218;-64
2022/09/25 11:20:28;;;;;;;0.80;0.80;;;;;13.90;95541.00;;;;5115309;28;20201;-64
2022/09/25 11:23:08;;;;;;;1.70;1.63;;;;;14.00;95552.00;;;;5114688;28;20289;-64
2022/09/25 11:25:45;;;;;;;1.77;1.67;;;;;14.00;95546.00;;;;5115128;28;20190;-62
2022/09/25 11:28:19;;;;;;;2.07;1.97;;;;;14.10;95541.00;;;;5115043;28;20252;-64
2022/09/25 11:30:52;;;;;;;1.97;1.83;;;;;14.30;95542.00;;;;5115149;28;20391;-64
2022/09/25 11:33:31;;;;;;;1.80;1.70;;;;;14.40;95539.00;;;;5097070;28;20226;-64
2022/09/25 11:36:03;;;;;;;2.27;1.80;;;;;14.60;95531.00;;;;5115074;28;20232;-64
2022/09/25 11:41:30;;;;;;;2.83;1.83;;;;;14.60;95536.00;;;;5115002;28;20205;-63
2022/09/25 11:44:07;;;;;;;2.30;2.13;;;;;14.70;95538.00;;;;5114820;28;20714;-63
2022/09/25 11:46:42;;;;;;;0.70;0.70;;;;;14.80;95543.00;;;;5096842;28;20208;-63
2022/09/25 11:49:17;;;;;;;1.40;1.30;;;;;14.60;95537.00;;;;5114923;28;20272;-64
2022/09/25 11:52:21;;;;;;;2.23;1.53;;;;;14.60;95535.00;;;;5114889;28;20300;-66
2022/09/25 11:55:10;;;;;;;1.53;1.47;;;;;14.50;95533.00;;;;5098232;28;20320;-63
2022/09/25 11:57:45;;;;;;;3.33;2.27;;;;;14.30;95530.00;;;;5096743;28;20652;-62
2022/09/25 12:00:19;;;;;;;0.87;0.87;;;;;14.50;95533.00;;;;5114933;28;20653;-63
2022/09/25 12:03:05;;;;;;;0.93;0.93;;;;;14.30;95528.00;;;;5096742;28;20288;-64
2022/09/25 12:05:50;;;;;;;1.33;1.33;;;;;14.40;95538.00;;;;5096660;28;20190;-64
2022/09/25 12:08:28;;;;;;;2.17;1.97;;;;;14.60;95532.00;;;;5096554;28;20288;-63
2022/09/25 12:11:02;;;;;;;2.50;2.33;;;;;14.90;95524.00;;;;5115346;28;20245;-65
2022/09/25 12:13:40;;;;;;;2.17;1.83;;;;;15.10;95524.00;;;;5114825;28;20501;-64
2022/09/25 12:16:15;;;;;;;1.13;1.07;;;;;15.10;95517.00;;;;5114596;28;20193;-63
2022/09/25 12:19:03;;;;;;;2.70;2.00;;;;;15.50;95521.00;;;;5114425;28;20221;-64
2022/09/25 12:21:36;;;;;;;1.30;1.30;;;;;15.80;95521.00;;;;5115511;28;20280;-64
2022/09/25 12:24:14;;;;;;;1.50;1.40;;;;;15.70;95521.00;;;;5116058;28;20613;-65
2022/09/25 12:26:47;;;;;;;1.33;1.33;;;;;15.30;95501.00;;;;5114325;28;20189;-63
2022/09/25 12:29:30;;;;;;;3.30;1.63;;;;;15.70;95503.00;;;;5114122;28;20549;-63
2022/09/25 12:32:05;;;;;;;1.13;1.13;;;;;15.70;95503.00;;;;5096104;28;20229;-63
2022/09/25 12:34:49;;;;;;;1.93;1.83;;;;;15.70;95506.00;;;;5114000;28;20217;-64
2022/09/25 12:37:24;;;;;;;2.13;2.00;;;;;15.50;95501.00;;;;5113867;28;20648;-64
2022/09/25 12:39:56;;;;;;;2.80;2.13;;;;;15.70;95463.00;;;;5113668;28;20205;-65
2022/09/25 12:42:32;;;;;;;1.50;1.40;;;;;15.80;95496.00;;;;5114046;28;20277;-64
2022/09/25 12:45:10;;;;;;;0.87;0.87;;;;;16.00;95489.00;;;;5095808;28;20240;-63
2022/09/25 12:47:41;;;;;;;2.17;2.07;;;;;16.10;95498.00;;;;5114430;28;20198;-62
2022/09/25 12:50:15;;;;;;;1.73;1.63;;;;;16.60;95495.00;;;;5113732;28;20649;-63
2022/09/25 12:52:46;;;;;;;1.70;1.60;;;;;16.70;95491.00;;;;5113593;28;20761;-64
2022/09/25 12:55:22;;;;;;;1.40;1.30;;;;;16.70;95494.00;;;;5113737;28;20194;-64
2022/09/25 12:57:53;;;;;;;1.03;1.03;;;;;16.40;95494.00;;;;5113767;28;20194;-64
2022/09/25 13:00:22;;;;;;;1.57;1.47;;;;;16.50;95493.00;;;;5095746;28;20209;-63